sensor_id;sensor_type;location;lat;lon;timestamp;pressure;altitude;pressure_sealevel;temperature;humidity
27210;BME280;14721;42.668;23.386;2023-02-15T00:01:18;96522.34;;;2.62;82.82
27210;BME280;14721;42.668;23.386;2023-02-15T00:03:43;96518.81;;;2.63;82.98
27210;BME280;14721;42.668;23.386;2023-02-15T00:06:09;96521.50;;;2.60;82.88
27210;BME280;14721;42.668;23.386;2023-02-15T00:08:34;96529.66;;;2.51;83.39
27210;BME280;14721;42.668;23.386;2023-02-15T00:11:18;96529.75;;;2.47;83.69
27210;BME280;14721;42.668;23.386;2023-02-15T00:14:04;96534.94;;;2.51;83.86
27210;BME280;14721;42.668;23.386;2023-02-15T00:16:30;96528.06;;;2.44;84.28
27210;BME280;14721;42.668;23.386;2023-02-15T00:18:56;96536.06;;;2.41;84.40
27210;BME280;14721;42.668;23.386;2023-02-15T00:21:22;96527.28;;;2.41;84.98
27210;BME280;14721;42.668;23.386;2023-02-15T00:23:49;96540.50;;;2.39;85.07
27210;BME280;14721;42.668;23.386;2023-02-15T00:26:15;96537.84;;;2.39;85.19
27210;BME280;14721;42.668;23.386;2023-02-15T00:28:41;96517.59;;;2.41;85.34
27210;BME280;14721;42.668;23.386;2023-02-15T00:31:11;96535.72;;;2.55;85.14
27210;BME280;14721;42.668;23.386;2023-02-15T00:33:39;96548.97;;;2.53;84.94
27210;BME280;14721;42.668;23.386;2023-02-15T00:36:07;96543.53;;;2.59;84.75
27210;BME280;14721;42.668;23.386;2023-02-15T00:38:34;96541.78;;;2.58;83.90
27210;BME280;14721;42.668;23.386;2023-02-15T00:41:02;96542.75;;;2.54;84.36
27210;BME280;14721;42.668;23.386;2023-02-15T00:43:30;96548.13;;;2.51;84.83
27210;BME280;14721;42.668;23.386;2023-02-15T00:45:57;96546.25;;;2.56;84.24
27210;BME280;14721;42.668;23.386;2023-02-15T00:48:23;96547.97;;;2.57;84.21
27210;BME280;14721;42.668;23.386;2023-02-15T00:50:52;96545.47;;;2.51;84.56
27210;BME280;14721;42.668;23.386;2023-02-15T00:53:18;96540.09;;;2.56;84.61
27210;BME280;14721;42.668;23.386;2023-02-15T00:55:45;96539.09;;;2.60;84.70
27210;BME280;14721;42.668;23.386;2023-02-15T00:58:11;96530.63;;;2.47;84.71
27210;BME280;14721;42.668;23.386;2023-02-15T01:00:38;96542.69;;;2.57;84.35
27210;BME280;14721;42.668;23.386;2023-02-15T01:03:05;96538.38;;;2.55;84.25
27210;BME280;14721;42.668;23.386;2023-02-15T01:05:32;96534.09;;;2.51;84.29
27210;BME280;14721;42.668;23.386;2023-02-15T01:07:58;96538.38;;;2.55;84.19
27210;BME280;14721;42.668;23.386;2023-02-15T01:10:25;96535.78;;;2.53;84.14
27210;BME280;14721;42.668;23.386;2023-02-15T01:12:53;96536.72;;;2.51;84.30
27210;BME280;14721;42.668;23.386;2023-02-15T01:15:20;96533.13;;;2.53;84.38
27210;BME280;14721;42.668;23.386;2023-02-15T01:17:46;96533.13;;;2.53;84.00
27210;BME280;14721;42.668;23.386;2023-02-15T01:20:24;96530.50;;;2.53;83.96
27210;BME280;14721;42.668;23.386;2023-02-15T01:22:50;96531.22;;;2.58;84.13
27210;BME280;14721;42.668;23.386;2023-02-15T01:25:17;96521.72;;;2.51;84.29
27210;BME280;14721;42.668;23.386;2023-02-15T01:27:43;96512.28;;;2.43;84.51
27210;BME280;14721;42.668;23.386;2023-02-15T01:30:09;96519.06;;;2.53;84.53
27210;BME280;14721;42.668;23.386;2023-02-15T01:32:36;96516.56;;;2.47;84.16
27210;BME280;14721;42.668;23.386;2023-02-15T01:35:02;96503.31;;;2.50;84.27
27210;BME280;14721;42.668;23.386;2023-02-15T01:37:31;96511.22;;;2.50;84.72
27210;BME280;14721;42.668;23.386;2023-02-15T01:39:57;96515.53;;;2.54;84.58
27210;BME280;14721;42.668;23.386;2023-02-15T01:42:24;96511.09;;;2.54;84.78
27210;BME280;14721;42.668;23.386;2023-02-15T01:44:54;96516.59;;;2.45;84.93
27210;BME280;14721;42.668;23.386;2023-02-15T01:47:45;96515.00;;;2.40;85.69
27210;BME280;14721;42.668;23.386;2023-02-15T01:50:41;96508.88;;;2.38;85.55
27210;BME280;14721;42.668;23.386;2023-02-15T01:53:15;96508.03;;;2.37;86.04
27210;BME280;14721;42.668;23.386;2023-02-15T01:55:51;96508.00;;;2.39;85.82
27210;BME280;14721;42.668;23.386;2023-02-15T01:58:21;96504.56;;;2.35;85.84
27210;BME280;14721;42.668;23.386;2023-02-15T02:00:48;96497.00;;;2.20;86.18
27210;BME280;14721;42.668;23.386;2023-02-15T02:03:15;96499.34;;;2.32;86.12
27210;BME280;14721;42.668;23.386;2023-02-15T02:05:44;96505.63;;;2.28;86.28
27210;BME280;14721;42.668;23.386;2023-02-15T02:08:10;96493.38;;;2.24;86.61
27210;BME280;14721;42.668;23.386;2023-02-15T02:10:37;96496.94;;;2.23;86.51
27210;BME280;14721;42.668;23.386;2023-02-15T02:13:05;96511.84;;;2.24;86.92
27210;BME280;14721;42.668;23.386;2023-02-15T02:18:32;96502.25;;;2.22;86.61
27210;BME280;14721;42.668;23.386;2023-02-15T02:33:11;96519.84;;;2.20;87.35
27210;BME280;14721;42.668;23.386;2023-02-15T02:46:55;96515.19;;;2.32;87.06
27210;BME280;14721;42.668;23.386;2023-02-15T02:49:37;96510.09;;;2.25;87.11
27210;BME280;14721;42.668;23.386;2023-02-15T02:52:06;96517.16;;;2.23;87.46
27210;BME280;14721;42.668;23.386;2023-02-15T02:54:34;96518.03;;;2.23;87.49
27210;BME280;14721;42.668;23.386;2023-02-15T02:57:04;96516.31;;;2.22;87.60
27210;BME280;14721;42.668;23.386;2023-02-15T02:59:40;96529.44;;;2.24;87.73
27210;BME280;14721;42.668;23.386;2023-02-15T03:02:16;96526.91;;;2.19;87.77
27210;BME280;14721;42.668;23.386;2023-02-15T03:04:49;96527.63;;;2.26;87.63
27210;BME280;14721;42.668;23.386;2023-02-15T03:07:25;96534.63;;;2.28;87.57
27210;BME280;14721;42.668;23.386;2023-02-15T03:09:58;96543.34;;;2.30;87.67
27210;BME280;14721;42.668;23.386;2023-02-15T03:12:30;96543.41;;;2.27;87.71
27210;BME280;14721;42.668;23.386;2023-02-15T03:15:06;96544.31;;;2.26;88.05
27210;BME280;14721;42.668;23.386;2023-02-15T03:17:40;96537.41;;;2.22;88.24
27210;BME280;14721;42.668;23.386;2023-02-15T03:20:18;96540.06;;;2.21;88.24
27210;BME280;14721;42.668;23.386;2023-02-15T03:22:53;96544.22;;;2.31;88.35
27210;BME280;14721;42.668;23.386;2023-02-15T03:25:39;96540.50;;;2.39;87.87
27210;BME280;14721;42.668;23.386;2023-02-15T03:28:15;96540.31;;;2.47;87.67
27210;BME280;14721;42.668;23.386;2023-02-15T03:30:47;96544.84;;;2.42;87.30
27210;BME280;14721;42.668;23.386;2023-02-15T03:33:15;96533.47;;;2.40;87.57
27210;BME280;14721;42.668;23.386;2023-02-15T03:36:42;96544.03;;;2.38;87.52
27210;BME280;14721;42.668;23.386;2023-02-15T03:38:51;96538.75;;;2.38;87.32
27210;BME280;14721;42.668;23.386;2023-02-15T03:41:20;96532.63;;;2.38;87.39
27210;BME280;14721;42.668;23.386;2023-02-15T03:43:56;96531.47;;;2.49;87.56
27210;BME280;14721;42.668;23.386;2023-02-15T03:46:56;96530.56;;;2.50;87.08
27210;BME280;14721;42.668;23.386;2023-02-15T03:50:13;96537.72;;;2.45;87.35
27210;BME280;14721;42.668;23.386;2023-02-15T03:52:14;96536.75;;;2.49;87.75
27210;BME280;14721;42.668;23.386;2023-02-15T03:54:43;96529.78;;;2.45;87.49
27210;BME280;14721;42.668;23.386;2023-02-15T03:57:21;96536.66;;;2.54;87.66
27210;BME280;14721;42.668;23.386;2023-02-15T04:00:15;96541.78;;;2.58;87.39
27210;BME280;14721;42.668;23.386;2023-02-15T04:03:17;96539.06;;;2.61;87.03
27210;BME280;14721;42.668;23.386;2023-02-15T04:05:46;96539.94;;;2.62;87.07
27210;BME280;14721;42.668;23.386;2023-02-15T04:08:14;96548.56;;;2.70;87.06
27210;BME280;14721;42.668;23.386;2023-02-15T04:10:39;96548.50;;;2.71;87.11
27210;BME280;14721;42.668;23.386;2023-02-15T04:13:41;96551.88;;;2.76;86.75
27210;BME280;14721;42.668;23.386;2023-02-15T04:16:07;96551.00;;;2.77;86.63
27210;BME280;14721;42.668;23.386;2023-02-15T04:18:41;96556.00;;;2.88;86.11
27210;BME280;14721;42.668;23.386;2023-02-15T04:21:28;96559.38;;;2.93;86.27
27210;BME280;14721;42.668;23.386;2023-02-15T04:24:14;96562.78;;;2.98;85.95
27210;BME280;14721;42.668;23.386;2023-02-15T04:26:59;96563.75;;;2.95;85.60
27210;BME280;14721;42.668;23.386;2023-02-15T04:29:26;96573.41;;;2.95;85.52
27210;BME280;14721;42.668;23.386;2023-02-15T04:31:55;96576.81;;;3.00;85.46
27210;BME280;14721;42.668;23.386;2023-02-15T04:34:22;96585.66;;;2.97;85.66
27210;BME280;14721;42.668;23.386;2023-02-15T04:36:48;96584.03;;;2.93;86.06
27210;BME280;14721;42.668;23.386;2023-02-15T04:39:14;96585.75;;;2.94;85.63
27210;BME280;14721;42.668;23.386;2023-02-15T04:41:40;96591.78;;;2.99;85.68
27210;BME280;14721;42.668;23.386;2023-02-15T04:44:06;96590.78;;;3.03;85.56
27210;BME280;14721;42.668;23.386;2023-02-15T04:46:32;96576.56;;;3.10;85.41
27210;BME280;14721;42.668;23.386;2023-02-15T04:48:57;96584.44;;;3.12;85.17
27210;BME280;14721;42.668;23.386;2023-02-15T04:51:23;96584.28;;;3.18;85.51
27210;BME280;14721;42.668;23.386;2023-02-15T04:53:49;96587.59;;;3.24;84.70
27210;BME280;14721;42.668;23.386;2023-02-15T04:56:14;96597.28;;;3.25;84.55
27210;BME280;14721;42.668;23.386;2023-02-15T04:58:40;96597.25;;;3.27;84.38
27210;BME280;14721;42.668;23.386;2023-02-15T05:01:10;96590.56;;;3.12;85.02
27210;BME280;14721;42.668;23.386;2023-02-15T05:03:36;96599.31;;;3.14;84.92
27210;BME280;14721;42.668;23.386;2023-02-15T05:06:03;96597.63;;;3.12;85.36
27210;BME280;14721;42.668;23.386;2023-02-15T05:08:29;96594.88;;;3.16;85.15
27210;BME280;14721;42.668;23.386;2023-02-15T05:10:57;96590.44;;;3.17;84.84
27210;BME280;14721;42.668;23.386;2023-02-15T05:13:23;96608.97;;;3.15;85.16
27210;BME280;14721;42.668;23.386;2023-02-15T05:15:52;96601.00;;;3.17;84.90
27210;BME280;14721;42.668;23.386;2023-02-15T05:18:20;96603.50;;;3.23;84.56
27210;BME280;14721;42.668;23.386;2023-02-15T05:20:46;96608.94;;;3.17;84.62
27210;BME280;14721;42.668;23.386;2023-02-15T05:23:12;96604.44;;;3.20;84.88
27210;BME280;14721;42.668;23.386;2023-02-15T05:25:38;96615.84;;;3.22;84.68
27210;BME280;14721;42.668;23.386;2023-02-15T05:28:24;96615.06;;;3.19;84.92
27210;BME280;14721;42.668;23.386;2023-02-15T05:31:13;96610.81;;;3.13;84.91
27210;BME280;14721;42.668;23.386;2023-02-15T05:33:37;96621.38;;;3.13;84.79
27210;BME280;14721;42.668;23.386;2023-02-15T05:36:03;96617.78;;;3.16;85.12
27210;BME280;14721;42.668;23.386;2023-02-15T05:38:30;96619.41;;;3.20;84.99
27210;BME280;14721;42.668;23.386;2023-02-15T05:40:56;96625.53;;;3.22;84.58
27210;BME280;14721;42.668;23.386;2023-02-15T05:43:22;96617.63;;;3.22;84.92
27210;BME280;14721;42.668;23.386;2023-02-15T05:45:51;96626.22;;;3.30;84.56
27210;BME280;14721;42.668;23.386;2023-02-15T05:48:18;96633.22;;;3.31;84.58
27210;BME280;14721;42.668;23.386;2023-02-15T05:50:44;96624.13;;;3.42;84.31
27210;BME280;14721;42.668;23.386;2023-02-15T05:53:10;96624.94;;;3.44;83.76
27210;BME280;14721;42.668;23.386;2023-02-15T05:55:40;96635.38;;;3.50;83.67
27210;BME280;14721;42.668;23.386;2023-02-15T05:58:06;96623.78;;;3.54;83.17
27210;BME280;14721;42.668;23.386;2023-02-15T06:00:32;96625.81;;;3.77;82.70
27210;BME280;14721;42.668;23.386;2023-02-15T06:02:57;96624.25;;;4.02;81.20
27210;BME280;14721;42.668;23.386;2023-02-15T06:05:23;96633.69;;;4.11;80.97
27210;BME280;14721;42.668;23.386;2023-02-15T06:07:48;96631.88;;;4.13;80.41
27210;BME280;14721;42.668;23.386;2023-02-15T06:10:14;96630.25;;;4.07;80.30
27210;BME280;14721;42.668;23.386;2023-02-15T06:12:40;96627.66;;;4.06;80.22
27210;BME280;14721;42.668;23.386;2023-02-15T06:15:06;96630.38;;;4.03;79.99
27210;BME280;14721;42.668;23.386;2023-02-15T06:17:32;96627.91;;;3.97;80.15
27210;BME280;14721;42.668;23.386;2023-02-15T06:19:57;96636.00;;;3.90;80.26
27210;BME280;14721;42.668;23.386;2023-02-15T06:22:23;96636.84;;;3.92;80.46
27210;BME280;14721;42.668;23.386;2023-02-15T06:24:48;96641.25;;;3.92;80.47
27210;BME280;14721;42.668;23.386;2023-02-15T06:27:14;96625.72;;;3.80;80.39
27210;BME280;14721;42.668;23.386;2023-02-15T06:29:39;96640.91;;;3.73;80.54
27210;BME280;14721;42.668;23.386;2023-02-15T06:32:05;96646.00;;;3.81;80.41
27210;BME280;14721;42.668;23.386;2023-02-15T06:34:30;96646.53;;;3.92;80.79
27210;BME280;14721;42.668;23.386;2023-02-15T06:36:56;96636.69;;;3.99;80.17
27210;BME280;14721;42.668;23.386;2023-02-15T06:39:21;96630.50;;;3.98;79.92
27210;BME280;14721;42.668;23.386;2023-02-15T06:41:47;96634.88;;;4.01;79.72
27210;BME280;14721;42.668;23.386;2023-02-15T06:44:13;96639.31;;;3.99;80.03
27210;BME280;14721;42.668;23.386;2023-02-15T06:46:38;96628.88;;;3.94;79.89
27210;BME280;14721;42.668;23.386;2023-02-15T06:49:04;96637.47;;;4.02;79.51
27210;BME280;14721;42.668;23.386;2023-02-15T06:51:29;96642.72;;;4.04;79.39
27210;BME280;14721;42.668;23.386;2023-02-15T06:53:54;96637.44;;;4.04;79.58
27210;BME280;14721;42.668;23.386;2023-02-15T06:59:04;96623.72;;;4.20;78.61
27210;BME280;14721;42.668;23.386;2023-02-15T07:01:30;96638.34;;;4.32;78.70
27210;BME280;14721;42.668;23.386;2023-02-15T07:03:55;96630.34;;;4.35;78.04
27210;BME280;14721;42.668;23.386;2023-02-15T07:06:21;96623.13;;;4.40;77.87
27210;BME280;14721;42.668;23.386;2023-02-15T07:08:46;96632.56;;;4.48;77.23
27210;BME280;14721;42.668;23.386;2023-02-15T07:11:12;96634.84;;;4.60;76.80
27210;BME280;14721;42.668;23.386;2023-02-15T07:13:59;96632.88;;;4.67;76.42
27210;BME280;14721;42.668;23.386;2023-02-15T07:16:27;96638.00;;;4.73;75.67
27210;BME280;14721;42.668;23.386;2023-02-15T07:18:53;96642.00;;;4.57;75.86
27210;BME280;14721;42.668;23.386;2023-02-15T07:21:18;96633.16;;;4.58;75.71
27210;BME280;14721;42.668;23.386;2023-02-15T07:23:46;96654.34;;;4.85;75.31
27210;BME280;14721;42.668;23.386;2023-02-15T07:26:12;96642.91;;;4.85;74.73
27210;BME280;14721;42.668;23.386;2023-02-15T07:28:45;96643.09;;;4.79;74.88
27210;BME280;14721;42.668;23.386;2023-02-15T07:31:10;96642.53;;;4.97;74.37
27210;BME280;14721;42.668;23.386;2023-02-15T07:33:43;96630.06;;;4.99;73.71
27210;BME280;14721;42.668;23.386;2023-02-15T07:36:09;96629.13;;;5.01;73.63
27210;BME280;14721;42.668;23.386;2023-02-15T07:38:38;96617.03;;;4.93;73.83
27210;BME280;14721;42.668;23.386;2023-02-15T07:41:07;96627.53;;;4.96;73.41
27210;BME280;14721;42.668;23.386;2023-02-15T07:43:35;96625.47;;;5.05;73.03
27210;BME280;14721;42.668;23.386;2023-02-15T07:46:03;96632.16;;;5.43;72.27
27210;BME280;14721;42.668;23.386;2023-02-15T07:48:35;96637.91;;;5.82;70.76
27210;BME280;14721;42.668;23.386;2023-02-15T07:51:09;96635.59;;;5.97;69.45
27210;BME280;14721;42.668;23.386;2023-02-15T07:53:36;96635.25;;;5.82;69.55
27210;BME280;14721;42.668;23.386;2023-02-15T07:56:04;96632.19;;;5.41;70.47
27210;BME280;14721;42.668;23.386;2023-02-15T07:58:34;96635.53;;;5.46;70.57
27210;BME280;14721;42.668;23.386;2023-02-15T08:01:25;96627.78;;;5.40;70.29
27210;BME280;14721;42.668;23.386;2023-02-15T08:03:52;96632.50;;;5.32;71.17
27210;BME280;14721;42.668;23.386;2023-02-15T08:06:22;96628.06;;;5.33;70.79
27210;BME280;14721;42.668;23.386;2023-02-15T08:08:49;96639.16;;;5.44;71.53
27210;BME280;14721;42.668;23.386;2023-02-15T08:11:19;96624.63;;;5.55;70.41
27210;BME280;14721;42.668;23.386;2023-02-15T08:14:06;96635.13;;;5.85;69.97
27210;BME280;14721;42.668;23.386;2023-02-15T08:21:43;96632.63;;;6.75;65.93
27210;BME280;14721;42.668;23.386;2023-02-15T08:24:11;96631.50;;;6.81;66.18
27210;BME280;14721;42.668;23.386;2023-02-15T08:26:38;96624.00;;;6.46;66.36
27210;BME280;14721;42.668;23.386;2023-02-15T08:29:05;96630.19;;;6.23;66.82
27210;BME280;14721;42.668;23.386;2023-02-15T08:31:32;96640.63;;;6.28;67.44
27210;BME280;14721;42.668;23.386;2023-02-15T08:33:58;96641.50;;;6.04;68.17
27210;BME280;14721;42.668;23.386;2023-02-15T08:36:27;96642.09;;;5.87;68.44
27210;BME280;14721;42.668;23.386;2023-02-15T08:38:54;96646.31;;;5.94;68.05
27210;BME280;14721;42.668;23.386;2023-02-15T08:41:25;96638.28;;;5.96;67.62
27210;BME280;14721;42.668;23.386;2023-02-15T08:43:56;96642.41;;;5.78;67.84
27210;BME280;14721;42.668;23.386;2023-02-15T08:46:23;96641.56;;;5.77;68.11
27210;BME280;14721;42.668;23.386;2023-02-15T08:48:49;96645.69;;;5.86;68.20
27210;BME280;14721;42.668;23.386;2023-02-15T08:51:21;96642.81;;;5.66;68.12
27210;BME280;14721;42.668;23.386;2023-02-15T08:53:50;96642.19;;;5.59;68.37
27210;BME280;14721;42.668;23.386;2023-02-15T08:56:20;96643.84;;;5.62;68.57
27210;BME280;14721;42.668;23.386;2023-02-15T08:58:46;96650.72;;;5.67;68.51
27210;BME280;14721;42.668;23.386;2023-02-15T09:01:16;96647.13;;;5.70;68.17
27210;BME280;14721;42.668;23.386;2023-02-15T09:03:47;96640.72;;;5.75;67.92
27210;BME280;14721;42.668;23.386;2023-02-15T09:06:16;96656.47;;;5.82;66.65
27210;BME280;14721;42.668;23.386;2023-02-15T09:08:41;96652.31;;;5.73;66.46
27210;BME280;14721;42.668;23.386;2023-02-15T09:11:15;96652.22;;;5.76;66.26
27210;BME280;14721;42.668;23.386;2023-02-15T09:13:48;96652.88;;;5.82;65.73
27210;BME280;14721;42.668;23.386;2023-02-15T09:16:14;96640.22;;;5.91;65.98
27210;BME280;14721;42.668;23.386;2023-02-15T09:18:42;96642.50;;;6.01;65.80
27210;BME280;14721;42.668;23.386;2023-02-15T09:21:13;96630.69;;;6.10;65.68
27210;BME280;14721;42.668;23.386;2023-02-15T09:23:43;96645.41;;;6.18;65.14
27210;BME280;14721;42.668;23.386;2023-02-15T09:26:13;96641.97;;;6.39;64.19
27210;BME280;14721;42.668;23.386;2023-02-15T09:28:40;96637.69;;;6.35;63.55
27210;BME280;14721;42.668;23.386;2023-02-15T09:33:35;96649.84;;;6.42;63.82
27210;BME280;14721;42.668;23.386;2023-02-15T09:36:02;96647.84;;;6.24;63.46
27210;BME280;14721;42.668;23.386;2023-02-15T09:38:27;96640.97;;;6.19;63.83
27210;BME280;14721;42.668;23.386;2023-02-15T10:03:04;96636.53;;;6.65;62.36
27210;BME280;14721;42.668;23.386;2023-02-15T10:08:40;96642.13;;;6.81;61.82
27210;BME280;14721;42.668;23.386;2023-02-15T10:22:04;96617.81;;;6.47;62.91
27210;BME280;14721;42.668;23.386;2023-02-15T10:24:56;96612.75;;;6.62;62.22
27210;BME280;14721;42.668;23.386;2023-02-15T10:27:30;96616.28;;;6.63;62.52
27210;BME280;14721;42.668;23.386;2023-02-15T10:30:12;96616.09;;;6.67;62.34
27210;BME280;14721;42.668;23.386;2023-02-15T10:32:53;96615.75;;;6.76;61.88
27210;BME280;14721;42.668;23.386;2023-02-15T10:38:15;96601.28;;;6.62;61.06
27210;BME280;14721;42.668;23.386;2023-02-15T10:49:45;96589.78;;;6.38;62.44
27210;BME280;14721;42.668;23.386;2023-02-15T10:52:42;96585.94;;;6.47;62.66
27210;BME280;14721;42.668;23.386;2023-02-15T11:00:45;96591.88;;;6.30;62.63
27210;BME280;14721;42.668;23.386;2023-02-15T11:03:43;96586.81;;;6.24;62.71
27210;BME280;14721;42.668;23.386;2023-02-15T11:06:17;96575.66;;;6.15;63.66
27210;BME280;14721;42.668;23.386;2023-02-15T11:08:54;96573.47;;;6.26;64.24
27210;BME280;14721;42.668;23.386;2023-02-15T11:11:27;96579.88;;;6.43;62.86
27210;BME280;14721;42.668;23.386;2023-02-15T11:16:45;96570.78;;;6.27;62.45
27210;BME280;14721;42.668;23.386;2023-02-15T11:19:33;96576.88;;;6.29;63.25
27210;BME280;14721;42.668;23.386;2023-02-15T11:22:05;96576.91;;;6.28;63.00
27210;BME280;14721;42.668;23.386;2023-02-15T11:24:37;96588.72;;;6.44;62.78
27210;BME280;14721;42.668;23.386;2023-02-15T11:27:20;96573.38;;;6.50;63.21
27210;BME280;14721;42.668;23.386;2023-02-15T11:32:32;96571.72;;;6.48;62.29
27210;BME280;14721;42.668;23.386;2023-02-15T11:38:11;96580.22;;;6.34;63.22
27210;BME280;14721;42.668;23.386;2023-02-15T11:40:36;96570.78;;;6.27;62.27
27210;BME280;14721;42.668;23.386;2023-02-15T11:43:15;96563.94;;;6.20;62.50
27210;BME280;14721;42.668;23.386;2023-02-15T11:45:44;96559.09;;;6.08;63.31
27210;BME280;14721;42.668;23.386;2023-02-15T11:48:12;96553.34;;;5.97;63.61
27210;BME280;14721;42.668;23.386;2023-02-15T11:50:40;96541.78;;;5.98;64.13
27210;BME280;14721;42.668;23.386;2023-02-15T11:53:12;96538.22;;;5.99;64.20
27210;BME280;14721;42.668;23.386;2023-02-15T11:55:39;96547.59;;;6.09;64.24
27210;BME280;14721;42.668;23.386;2023-02-15T12:01:10;96535.31;;;6.05;63.46
27210;BME280;14721;42.668;23.386;2023-02-15T12:03:50;96530.59;;;6.13;63.37
27210;BME280;14721;42.668;23.386;2023-02-15T12:06:23;96532.16;;;6.19;63.43
27210;BME280;14721;42.668;23.386;2023-02-15T12:11:32;96533.31;;;6.12;63.07
27210;BME280;14721;42.668;23.386;2023-02-15T12:14:10;96537.03;;;6.08;62.93
27210;BME280;14721;42.668;23.386;2023-02-15T12:16:45;96528.19;;;6.07;63.28
27210;BME280;14721;42.668;23.386;2023-02-15T12:19:33;96517.63;;;6.06;62.96
27210;BME280;14721;42.668;23.386;2023-02-15T12:22:04;96521.94;;;6.08;62.90
27210;BME280;14721;42.668;23.386;2023-02-15T12:24:36;96522.19;;;6.02;63.20
27210;BME280;14721;42.668;23.386;2023-02-15T12:27:03;96516.59;;;6.10;62.88
27210;BME280;14721;42.668;23.386;2023-02-15T12:29:35;96513.69;;;6.16;62.78
27210;BME280;14721;42.668;23.386;2023-02-15T12:32:05;96513.50;;;6.20;62.69
27210;BME280;14721;42.668;23.386;2023-02-15T12:34:38;96513.41;;;6.23;62.16
27210;BME280;14721;42.668;23.386;2023-02-15T12:37:15;96507.72;;;6.32;61.91
27210;BME280;14721;42.668;23.386;2023-02-15T12:39:51;96498.94;;;6.32;62.04
27210;BME280;14721;42.668;23.386;2023-02-15T12:42:17;96499.53;;;6.38;61.51
27210;BME280;14721;42.668;23.386;2023-02-15T12:44:55;96499.72;;;6.34;61.86
27210;BME280;14721;42.668;23.386;2023-02-15T12:47:21;96497.00;;;6.35;61.44
27210;BME280;14721;42.668;23.386;2023-02-15T12:50:13;96493.97;;;6.44;62.12
27210;BME280;14721;42.668;23.386;2023-02-15T12:52:44;96497.69;;;6.40;61.26
27210;BME280;14721;42.668;23.386;2023-02-15T12:55:27;96493.44;;;6.36;61.57
27210;BME280;14721;42.668;23.386;2023-02-15T12:58:18;96485.28;;;6.41;62.19
27210;BME280;14721;42.668;23.386;2023-02-15T13:00:45;96483.41;;;6.43;61.52
27210;BME280;14721;42.668;23.386;2023-02-15T13:03:21;96480.03;;;6.39;61.41
27210;BME280;14721;42.668;23.386;2023-02-15T13:05:53;96487.78;;;6.45;61.50
27210;BME280;14721;42.668;23.386;2023-02-15T13:08:46;96477.09;;;6.47;61.30
27210;BME280;14721;42.668;23.386;2023-02-15T13:11:20;96474.72;;;6.61;61.06
27210;BME280;14721;42.668;23.386;2023-02-15T13:13:58;96470.59;;;6.54;61.04
27210;BME280;14721;42.668;23.386;2023-02-15T13:16:31;96473.81;;;6.62;61.34
27210;BME280;14721;42.668;23.386;2023-02-15T13:18:57;96471.94;;;6.64;60.85
27210;BME280;14721;42.668;23.386;2023-02-15T13:21:25;96461.94;;;6.70;60.80
27210;BME280;14721;42.668;23.386;2023-02-15T13:23:58;96467.69;;;6.81;60.10
27210;BME280;14721;42.668;23.386;2023-02-15T13:26:26;96456.44;;;6.75;60.07
27210;BME280;14721;42.668;23.386;2023-02-15T13:29:17;96465.09;;;6.80;60.60
27210;BME280;14721;42.668;23.386;2023-02-15T13:31:44;96472.88;;;6.84;60.88
27210;BME280;14721;42.668;23.386;2023-02-15T13:34:22;96474.34;;;6.91;60.65
27210;BME280;14721;42.668;23.386;2023-02-15T13:39:44;96474.56;;;7.07;60.26
27210;BME280;14721;42.668;23.386;2023-02-15T13:42:31;96477.72;;;6.95;60.65
27210;BME280;14721;42.668;23.386;2023-02-15T13:47:34;96478.00;;;6.89;60.19
27210;BME280;14721;42.668;23.386;2023-02-15T13:55:47;96488.16;;;6.99;59.94
27210;BME280;14721;42.668;23.386;2023-02-15T13:59:26;96490.66;;;6.82;60.79
27210;BME280;14721;42.668;23.386;2023-02-15T14:15:35;96495.59;;;6.91;60.82
27210;BME280;14721;42.668;23.386;2023-02-15T14:18:26;96510.78;;;6.88;61.47
27210;BME280;14721;42.668;23.386;2023-02-15T14:28:51;96518.97;;;6.62;62.12
27210;BME280;14721;42.668;23.386;2023-02-15T14:31:29;96514.00;;;6.53;62.00
27210;BME280;14721;42.668;23.386;2023-02-15T14:33:58;96509.66;;;6.50;62.03
27210;BME280;14721;42.668;23.386;2023-02-15T14:36:27;96502.88;;;6.43;63.22
27210;BME280;14721;42.668;23.386;2023-02-15T14:42:24;96502.94;;;6.42;63.18
27210;BME280;14721;42.668;23.386;2023-02-15T14:45:02;96509.19;;;6.41;62.78
27210;BME280;14721;42.668;23.386;2023-02-15T14:47:40;96514.56;;;6.39;63.29
27210;BME280;14721;42.668;23.386;2023-02-15T14:58:32;96507.19;;;6.24;64.18
27210;BME280;14721;42.668;23.386;2023-02-15T15:01:07;96518.72;;;6.23;63.95
27210;BME280;14721;42.668;23.386;2023-02-15T15:03:33;96509.31;;;6.15;64.03
27210;BME280;14721;42.668;23.386;2023-02-15T15:06:01;96508.28;;;6.19;64.27
27210;BME280;14721;42.668;23.386;2023-02-15T15:08:37;96512.84;;;6.15;64.21
27210;BME280;14721;42.668;23.386;2023-02-15T15:13:59;96513.97;;;6.08;64.71
27210;BME280;14721;42.668;23.386;2023-02-15T15:18:59;96519.75;;;5.96;65.22
27210;BME280;14721;42.668;23.386;2023-02-15T15:21:51;96514.38;;;5.98;64.85
27210;BME280;14721;42.668;23.386;2023-02-15T15:30:01;96513.13;;;5.60;65.90
27210;BME280;14721;42.668;23.386;2023-02-15T15:32:30;96528.69;;;5.69;65.74
27210;BME280;14721;42.668;23.386;2023-02-15T15:38:32;96528.91;;;5.63;65.93
27210;BME280;14721;42.668;23.386;2023-02-15T15:49:05;96546.63;;;5.38;66.98
27210;BME280;14721;42.668;23.386;2023-02-15T15:51:33;96532.75;;;5.30;66.85
27210;BME280;14721;42.668;23.386;2023-02-15T15:54:01;96538.81;;;5.33;67.30
27210;BME280;14721;42.668;23.386;2023-02-15T15:56:32;96542.34;;;5.34;67.19
27210;BME280;14721;42.668;23.386;2023-02-15T15:59:12;96528.53;;;5.24;67.41
27210;BME280;14721;42.668;23.386;2023-02-15T16:01:42;96544.69;;;5.17;68.02
27210;BME280;14721;42.668;23.386;2023-02-15T16:04:13;96544.00;;;5.12;68.19
27210;BME280;14721;42.668;23.386;2023-02-15T16:06:39;96537.06;;;5.08;68.34
27210;BME280;14721;42.668;23.386;2023-02-15T16:09:15;96543.34;;;5.05;69.00
27210;BME280;14721;42.668;23.386;2023-02-15T16:11:42;96549.88;;;4.95;69.40
27210;BME280;14721;42.668;23.386;2023-02-15T16:14:38;96548.94;;;4.96;69.72